Time;durP1;ratioP1;P1;durP2;ratioP2;P2;SDS_P1;SDS_P2;PMS_P1;PMS_P2;Temp;Humidity;BMP_temperature;BMP_pressure;BME280_temperature;BME280_humidity;BME280_pressure;Samples;Min_cycle;Max_cycle;Signal;HPM_P1;HPM_P2
2022/03/14 00:02:15;;;;;;;21.23;13.23;;;3.70;48.40;;;;;;5033155;28;20025;-23
2022/03/14 00:04:41;;;;;;;14.68;8.43;;;3.70;48.30;;;;;;5033040;28;20048;-22
2022/03/14 00:07:07;;;;;;;11.88;6.18;;;3.80;48.50;;;;;;5033403;28;20025;-23
2022/03/14 00:09:33;;;;;;;15.70;9.93;;;3.80;47.80;;;;;;5032879;28;20033;-21
2022/03/14 00:11:59;;;;;;;10.18;6.25;;;3.80;47.60;;;;;;5032920;28;20053;-21
2022/03/14 00:14:25;;;;;;;16.27;9.88;;;3.90;47.30;;;;;;5032739;28;20018;-22
2022/03/14 00:16:54;;;;;;;26.45;16.55;;;3.90;48.50;;;;;;5032915;28;20108;-22
2022/03/14 00:19:20;;;;;;;15.65;9.07;;;3.90;47.70;;;;;;5032671;28;20041;-22
2022/03/14 00:21:46;;;;;;;30.25;17.40;;;3.90;48.50;;;;;;5033226;28;20026;-22
2022/03/14 00:24:13;;;;;;;28.13;16.60;;;3.90;49.00;;;;;;5032779;28;20478;-23
2022/03/14 00:26:39;;;;;;;39.47;24.20;;;4.00;49.80;;;;;;5032830;28;20037;-21
2022/03/14 00:29:09;;;;;;;29.80;16.17;;;4.00;49.00;;;;;;5032678;28;20037;-20
2022/03/14 00:31:36;;;;;;;23.85;14.32;;;4.10;50.10;;;;;;5032820;28;20037;-20
2022/03/14 00:34:02;;;;;;;32.78;19.67;;;4.10;50.80;;;;;;5033070;28;20033;-22
2022/03/14 00:36:28;;;;;;;29.10;16.75;;;4.10;51.10;;;;;;5032526;28;20029;-22
2022/03/14 00:38:55;;;;;;;29.77;18.50;;;4.10;50.60;;;;;;5033075;28;20080;-21
2022/03/14 00:41:21;;;;;;;24.63;15.57;;;4.10;50.20;;;;;;5032656;28;20037;-23
2022/03/14 00:43:47;;;;;;;18.73;10.95;;;4.20;50.10;;;;;;5031481;28;20103;-21
2022/03/14 00:46:17;;;;;;;17.25;9.85;;;4.20;49.40;;;;;;5032787;28;20033;-23
2022/03/14 00:48:44;;;;;;;13.05;7.80;;;4.20;49.20;;;;;;5032575;28;20071;-22
2022/03/14 00:51:11;;;;;;;26.58;17.75;;;4.20;48.70;;;;;;5032921;28;20034;-21
2022/03/14 00:53:37;;;;;;;24.40;15.52;;;4.20;48.80;;;;;;5032561;28;20440;-21
2022/03/14 00:56:04;;;;;;;13.63;8.35;;;4.30;50.90;;;;;;5033366;28;20021;-22
2022/03/14 00:58:30;;;;;;;12.98;7.05;;;4.30;49.20;;;;;;5032640;28;20049;-21
2022/03/14 01:00:56;;;;;;;11.98;6.65;;;4.20;48.60;;;;;;5032537;28;20484;-23
2022/03/14 01:03:22;;;;;;;14.70;9.07;;;4.30;48.20;;;;;;5032813;28;20030;-22
2022/03/14 01:05:48;;;;;;;13.80;8.45;;;4.30;47.70;;;;;;5035196;28;20053;-23
2022/03/14 01:08:14;;;;;;;16.45;9.55;;;4.30;48.50;;;;;;5036090;28;20116;-23
2022/03/14 01:10:40;;;;;;;13.75;8.52;;;4.20;48.80;;;;;;5036357;28;20032;-21
2022/03/14 01:13:07;;;;;;;10.23;6.40;;;4.20;48.30;;;;;;5036049;28;20034;-21
2022/03/14 01:15:34;;;;;;;11.75;6.88;;;4.20;48.10;;;;;;5035839;28;20112;-21
2022/03/14 01:18:00;;;;;;;11.60;6.35;;;4.10;47.90;;;;;;5036195;28;20021;-21
2022/03/14 01:20:26;;;;;;;10.82;6.68;;;4.10;47.70;;;;;;5035519;28;20049;-23
2022/03/14 01:22:55;;;;;;;17.50;9.75;;;4.00;47.70;;;;;;5036153;28;20074;-22
2022/03/14 01:25:24;;;;;;;23.50;15.43;;;4.00;47.70;;;;;;5036055;28;20029;-21
2022/03/14 01:27:51;;;;;;;13.43;8.13;;;4.00;48.00;;;;;;5035968;28;20025;-23
2022/03/14 01:30:19;;;;;;;14.07;7.82;;;4.00;48.30;;;;;;5035685;28;20021;-21
2022/03/14 01:32:47;;;;;;;19.77;11.27;;;3.90;48.70;;;;;;5035610;28;20116;-21
2022/03/14 01:35:13;;;;;;;27.70;18.75;;;3.90;50.00;;;;;;5035545;28;20033;-23
2022/03/14 01:37:39;;;;;;;21.38;13.80;;;3.80;53.00;;;;;;5035714;28;20033;-21
2022/03/14 01:40:09;;;;;;;25.02;15.73;;;3.80;53.10;;;;;;5035602;28;20470;-22
2022/03/14 01:42:37;;;;;;;25.00;16.30;;;3.80;51.90;;;;;;5035609;28;20117;-21
2022/03/14 01:45:05;;;;;;;34.90;22.65;;;3.70;52.50;;;;;;5035348;28;20088;-22
2022/03/14 01:47:32;;;;;;;34.20;21.77;;;3.70;56.10;;;;;;5035740;28;20041;-21
2022/03/14 01:49:58;;;;;;;28.45;18.90;;;3.70;56.90;;;;;;5035235;28;20029;-21
2022/03/14 01:52:25;;;;;;;34.60;21.33;;;3.70;56.60;;;;;;5035316;28;20107;-20
2022/03/14 01:54:52;;;;;;;21.30;13.00;;;3.70;56.90;;;;;;5035527;28;20087;-23
2022/03/14 01:57:18;;;;;;;32.85;19.88;;;3.70;55.10;;;;;;5035470;28;20102;-23
2022/03/14 01:59:44;;;;;;;28.00;17.45;;;3.70;56.40;;;;;;5035349;28;20124;-22
2022/03/14 02:02:10;;;;;;;19.30;10.73;;;3.70;57.10;;;;;;5035317;28;20430;-22
2022/03/14 02:04:36;;;;;;;25.17;15.13;;;3.70;54.10;;;;;;5035437;28;20025;-23
2022/03/14 02:07:04;;;;;;;23.98;14.43;;;3.80;53.20;;;;;;5034891;28;20374;-23
2022/03/14 02:09:30;;;;;;;17.35;11.02;;;3.80;54.10;;;;;;5035170;28;20385;-21
2022/03/14 02:11:56;;;;;;;15.80;9.65;;;3.80;53.20;;;;;;5035746;28;20033;-21
2022/03/14 02:14:24;;;;;;;13.38;8.02;;;3.80;52.80;;;;;;5033316;28;20091;-23
2022/03/14 02:16:50;;;;;;;13.57;9.23;;;3.90;52.50;;;;;;5033719;28;20392;-22
2022/03/14 02:19:18;;;;;;;10.15;6.13;;;3.90;51.90;;;;;;5035249;28;20045;-23
2022/03/14 02:21:44;;;;;;;10.27;5.25;;;3.90;51.70;;;;;;5033533;28;20033;-21
2022/03/14 02:24:11;;;;;;;15.38;9.55;;;3.90;51.50;;;;;;5034694;28;20049;-21
2022/03/14 02:26:41;;;;;;;15.63;9.75;;;4.00;51.30;;;;;;5034633;28;20040;-23
2022/03/14 02:29:08;;;;;;;17.63;11.40;;;4.00;51.60;;;;;;5034343;28;20489;-21
2022/03/14 02:31:36;;;;;;;12.98;8.23;;;4.10;51.30;;;;;;5034915;28;20053;-21
2022/03/14 02:34:07;;;;;;;9.52;5.85;;;4.10;51.20;;;;;;5035164;28;20025;-21
2022/03/14 02:36:37;;;;;;;16.08;9.07;;;4.10;51.00;;;;;;5034328;28;20064;-21
2022/03/14 02:39:04;;;;;;;12.65;7.68;;;4.20;51.70;;;;;;5034461;28;20025;-21
2022/03/14 02:41:31;;;;;;;23.90;14.02;;;4.20;51.90;;;;;;5034535;28;20025;-21
2022/03/14 02:43:57;;;;;;;12.38;7.47;;;4.20;52.80;;;;;;5034764;28;20036;-22
2022/03/14 02:46:23;;;;;;;16.58;9.98;;;4.30;51.50;;;;;;5034140;28;20017;-21
2022/03/14 02:48:49;;;;;;;15.80;9.88;;;4.30;52.50;;;;;;5034118;28;20083;-21
2022/03/14 02:51:15;;;;;;;17.08;9.38;;;4.30;51.70;;;;;;5034498;28;20022;-22
2022/03/14 02:53:41;;;;;;;29.77;17.48;;;4.40;51.80;;;;;;5034511;28;20053;-21
2022/03/14 02:56:07;;;;;;;25.92;14.80;;;4.40;53.70;;;;;;5034141;28;20029;-23
2022/03/14 02:58:39;;;;;;;16.27;9.93;;;4.40;54.50;;;;;;5033931;28;20021;-22
2022/03/14 03:01:05;;;;;;;27.67;16.58;;;4.40;53.10;;;;;;5034238;28;20033;-22
2022/03/14 03:03:32;;;;;;;24.77;14.50;;;4.40;53.80;;;;;;5034269;28;20388;-21
2022/03/14 03:05:58;;;;;;;18.38;11.82;;;4.40;54.00;;;;;;5034020;28;20025;-21
2022/03/14 03:08:24;;;;;;;27.00;17.20;;;4.40;54.90;;;;;;5033527;28;20417;-21
2022/03/14 03:10:50;;;;;;;18.95;11.23;;;4.40;53.90;;;;;;5033783;28;20018;-23
2022/03/14 03:13:17;;;;;;;14.00;7.47;;;4.40;53.40;;;;;;5033767;28;20040;-21
2022/03/14 03:15:42;;;;;;;22.77;13.02;;;4.40;52.30;;;;;;5033765;28;20469;-21
2022/03/14 03:18:13;;;;;;;23.38;13.98;;;4.40;53.00;;;;;;5033683;28;20053;-21
2022/03/14 03:20:39;;;;;;;16.15;9.40;;;4.50;54.00;;;;;;5033502;28;20128;-21
2022/03/14 03:23:06;;;;;;;20.40;12.95;;;4.50;53.30;;;;;;5034025;28;20112;-21
2022/03/14 03:25:32;;;;;;;22.92;11.75;;;4.50;53.10;;;;;;5033566;28;20030;-21
2022/03/14 03:27:57;;;;;;;16.50;9.63;;;4.50;53.50;;;;;;5033183;28;20036;-23
2022/03/14 03:30:23;;;;;;;13.15;7.68;;;4.60;52.70;;;;;;5033241;28;20021;-22
2022/03/14 03:32:49;;;;;;;12.48;7.57;;;4.60;52.40;;;;;;5033679;28;20061;-21
2022/03/14 03:35:15;;;;;;;10.82;6.10;;;4.60;52.00;;;;;;5033498;28;20485;-21
2022/03/14 03:37:41;;;;;;;8.88;5.22;;;4.60;51.90;;;;;;5033742;28;20033;-21
2022/03/14 03:40:08;;;;;;;15.77;9.40;;;4.60;51.60;;;;;;5033331;28;20021;-21
2022/03/14 03:42:34;;;;;;;21.13;13.13;;;4.70;52.30;;;;;;5033410;28;20036;-21
2022/03/14 03:45:00;;;;;;;12.68;7.05;;;4.70;52.30;;;;;;5033173;28;20029;-23
2022/03/14 03:47:26;;;;;;;9.80;4.95;;;4.70;51.60;;;;;;5033448;28;20029;-23
2022/03/14 03:49:52;;;;;;;12.10;7.45;;;4.70;51.40;;;;;;5033133;28;20079;-23
2022/03/14 03:52:18;;;;;;;13.88;8.70;;;4.70;51.40;;;;;;5032953;28;20018;-22
2022/03/14 03:54:44;;;;;;;20.40;12.60;;;4.80;52.00;;;;;;5031994;28;20026;-21
2022/03/14 03:57:09;;;;;;;9.85;5.50;;;4.70;51.70;;;;;;5033095;28;20029;-22
2022/03/14 03:59:35;;;;;;;9.27;5.10;;;4.80;51.50;;;;;;5033310;28;20072;-23
2022/03/14 04:02:02;;;;;;;17.58;10.73;;;4.80;51.20;;;;;;5033287;28;20030;-21
2022/03/14 04:04:30;;;;;;;23.00;13.10;;;4.80;51.40;;;;;;5032805;28;20033;-23
2022/03/14 04:06:57;;;;;;;14.50;9.32;;;4.80;52.50;;;;;;5033619;28;20029;-22
2022/03/14 04:09:26;;;;;;;19.33;11.20;;;4.80;52.40;;;;;;5033282;28;20366;-22
2022/03/14 04:11:52;;;;;;;15.18;9.70;;;4.80;51.60;;;;;;5033275;28;20086;-21
2022/03/14 04:14:19;;;;;;;12.88;8.38;;;4.80;51.60;;;;;;5032986;28;20022;-22
2022/03/14 04:16:45;;;;;;;16.65;9.20;;;4.80;51.90;;;;;;5032934;28;20029;-21
2022/03/14 04:19:11;;;;;;;19.60;11.30;;;4.80;51.60;;;;;;5032704;28;20057;-21
2022/03/14 04:21:38;;;;;;;15.55;8.57;;;4.80;51.10;;;;;;5033628;28;20032;-23
2022/03/14 04:24:06;;;;;;;15.93;8.98;;;4.80;50.80;;;;;;5033233;28;20033;-23
2022/03/14 04:26:33;;;;;;;16.05;9.45;;;4.90;51.30;;;;;;5032667;28;20489;-21
2022/03/14 04:28:59;;;;;;;12.13;6.68;;;4.90;51.30;;;;;;5032969;28;20037;-23
2022/03/14 04:31:25;;;;;;;12.77;6.95;;;4.90;51.30;;;;;;5032832;28;20385;-22
2022/03/14 04:33:51;;;;;;;11.50;6.35;;;4.90;51.50;;;;;;5033106;28;20056;-22
2022/03/14 04:36:17;;;;;;;13.93;7.32;;;4.90;51.40;;;;;;5032840;28;20025;-21
2022/03/14 04:38:42;;;;;;;19.17;12.05;;;4.90;51.20;;;;;;5031587;28;20076;-23
2022/03/14 04:41:09;;;;;;;23.02;14.32;;;4.90;52.90;;;;;;5036695;28;20030;-21
2022/03/14 04:43:35;;;;;;;23.73;14.48;;;4.90;54.60;;;;;;5036897;28;20117;-21
2022/03/14 04:46:02;;;;;;;15.38;10.50;;;4.80;53.80;;;;;;5036445;28;20083;-23
2022/03/14 04:48:29;;;;;;;10.88;5.75;;;4.80;53.10;;;;;;5036227;28;20528;-21
2022/03/14 04:50:56;;;;;;;7.95;5.00;;;4.80;52.10;;;;;;5036437;28;20504;-21
2022/03/14 04:53:22;;;;;;;8.63;5.00;;;4.70;51.80;;;;;;5036365;28;20029;-23
2022/03/14 04:55:48;;;;;;;12.73;7.82;;;4.70;51.60;;;;;;5036692;28;20104;-22
2022/03/14 04:58:14;;;;;;;16.55;9.30;;;4.60;51.60;;;;;;5034882;28;20378;-21
2022/03/14 05:00:44;;;;;;;14.55;7.57;;;4.60;51.70;;;;;;5036168;28;20485;-21
2022/03/14 05:03:11;;;;;;;17.08;9.70;;;4.60;52.10;;;;;;5036195;28;20037;-21
2022/03/14 05:05:37;;;;;;;9.85;5.82;;;4.50;52.10;;;;;;5036140;28;20390;-21
2022/03/14 05:08:04;;;;;;;11.90;7.40;;;4.50;51.80;;;;;;5036382;28;20018;-21
2022/03/14 05:10:30;;;;;;;19.83;11.20;;;4.40;51.70;;;;;;5035983;28;20048;-21
2022/03/14 05:12:59;;;;;;;20.63;12.05;;;4.40;51.90;;;;;;5036010;28;20557;-21
2022/03/14 05:15:25;;;;;;;18.08;11.05;;;4.40;52.50;;;;;;5035863;28;20036;-21
2022/03/14 05:17:51;;;;;;;20.65;12.80;;;4.40;53.20;;;;;;5036165;28;20026;-21
2022/03/14 05:20:17;;;;;;;16.65;9.55;;;4.40;54.00;;;;;;5035822;28;20390;-21
2022/03/14 05:22:45;;;;;;;7.88;4.63;;;4.40;53.30;;;;;;5036120;28;20030;-21
2022/03/14 05:25:11;;;;;;;21.55;10.65;;;4.40;52.50;;;;;;5035794;28;20026;-22
2022/03/14 05:27:39;;;;;;;14.48;7.85;;;4.40;52.50;;;;;;5036359;28;20025;-22
2022/03/14 05:30:10;;;;;;;9.05;5.40;;;4.40;53.10;;;;;;5035807;28;20053;-21
2022/03/14 05:32:39;;;;;;;10.18;6.28;;;4.40;52.40;;;;;;5036141;28;20060;-21
2022/03/14 05:35:11;;;;;;;7.20;4.10;;;4.40;52.10;;;;;;5035616;28;20052;-21
2022/03/14 05:37:39;;;;;;;7.63;4.32;;;4.40;52.00;;;;;;5035923;28;20026;-21
2022/03/14 05:40:07;;;;;;;7.60;4.20;;;4.40;52.00;;;;;;5035525;28;20504;-22
2022/03/14 05:42:33;;;;;;;7.55;4.57;;;4.40;51.80;;;;;;5035226;28;20535;-21
2022/03/14 05:44:59;;;;;;;12.18;7.03;;;4.50;51.60;;;;;;5035829;28;20112;-21
2022/03/14 05:47:26;;;;;;;7.60;4.90;;;4.50;51.80;;;;;;5035700;28;20474;-21
2022/03/14 05:49:52;;;;;;;7.30;3.90;;;4.50;51.60;;;;;;5035211;28;20390;-21
2022/03/14 05:52:19;;;;;;;14.05;7.70;;;4.60;51.70;;;;;;5034892;28;20030;-21
2022/03/14 05:54:45;;;;;;;7.97;4.93;;;4.70;51.60;;;;;;5035226;28;20035;-21
2022/03/14 05:57:11;;;;;;;9.05;5.10;;;4.70;51.90;;;;;;5035417;28;20112;-23
2022/03/14 05:59:38;;;;;;;11.38;6.68;;;4.70;51.80;;;;;;5035198;28;20022;-23
2022/03/14 06:02:04;;;;;;;9.55;5.38;;;4.80;51.50;;;;;;5035262;28;20474;-22
2022/03/14 06:04:30;;;;;;;13.30;8.10;;;4.80;51.30;;;;;;5034023;28;20029;-21
2022/03/14 06:06:56;;;;;;;24.20;12.55;;;4.90;51.50;;;;;;5035135;28;20041;-21
2022/03/14 06:09:25;;;;;;;17.88;10.80;;;4.90;52.90;;;;;;5035254;28;20045;-21
2022/03/14 06:11:54;;;;;;;14.45;8.63;;;4.90;54.30;;;;;;5034964;28;20108;-21
2022/03/14 06:14:20;;;;;;;12.65;8.77;;;5.00;52.20;;;;;;5034766;28;20017;-21
2022/03/14 06:16:46;;;;;;;8.52;5.18;;;5.00;52.50;;;;;;5033656;28;20480;-23
2022/03/14 06:19:12;;;;;;;13.07;6.75;;;5.10;52.30;;;;;;5034867;28;20049;-21
2022/03/14 06:21:39;;;;;;;10.98;6.45;;;5.10;52.10;;;;;;5035422;28;20021;-22
2022/03/14 06:24:08;;;;;;;9.80;5.18;;;5.20;52.20;;;;;;5035291;28;20044;-23
2022/03/14 06:26:35;;;;;;;11.20;5.75;;;5.30;51.60;;;;;;5034472;28;20033;-21
2022/03/14 06:29:03;;;;;;;15.57;8.38;;;5.40;51.50;;;;;;5034781;28;20030;-23
2022/03/14 06:31:33;;;;;;;17.13;10.00;;;5.50;52.10;;;;;;5035067;28;20515;-22
2022/03/14 06:34:00;;;;;;;17.73;11.43;;;5.50;52.20;;;;;;5034732;28;20018;-22
2022/03/14 06:36:29;;;;;;;22.17;14.18;;;5.60;52.60;;;;;;5034371;28;20026;-20
2022/03/14 06:38:59;;;;;;;22.23;13.70;;;5.70;52.80;;;;;;5035015;28;20096;-20
2022/03/14 06:41:29;;;;;;;15.80;10.85;;;5.90;54.30;;;;;;5034741;28;20511;-21
2022/03/14 06:43:56;;;;;;;12.60;8.32;;;5.90;52.80;;;;;;5034224;28;20026;-21
2022/03/14 06:46:23;;;;;;;23.30;13.27;;;6.00;52.50;;;;;;5034405;28;20033;-21
2022/03/14 06:48:49;;;;;;;28.77;16.92;;;6.20;53.40;;;;;;5034449;28;20030;-23
2022/03/14 06:51:15;;;;;;;20.75;13.27;;;6.30;54.10;;;;;;5032964;28;20025;-21
2022/03/14 06:53:42;;;;;;;18.23;11.27;;;6.40;52.60;;;;;;5034495;28;20038;-22
2022/03/14 06:56:08;;;;;;;17.65;11.57;;;6.50;52.60;;;;;;5034432;28;20068;-21
2022/03/14 06:58:40;;;;;;;27.83;16.48;;;6.70;52.60;;;;;;5033896;28;20018;-23
2022/03/14 07:01:07;;;;;;;17.02;11.02;;;6.90;52.10;;;;;;5034259;28;20026;-22
2022/03/14 07:03:33;;;;;;;18.98;12.55;;;7.00;52.40;;;;;;5033769;28;20052;-21
2022/03/14 07:05:59;;;;;;;19.75;11.68;;;7.10;51.50;;;;;;5034237;28;20389;-22
2022/03/14 07:08:25;;;;;;;18.90;11.68;;;7.30;51.00;;;;;;5034160;28;20026;-21
2022/03/14 07:10:53;;;;;;;15.75;10.20;;;7.50;51.00;;;;;;5034145;28;20033;-23
2022/03/14 07:13:20;;;;;;;12.13;7.88;;;7.70;50.70;;;;;;5034122;28;20048;-21
2022/03/14 07:15:46;;;;;;;13.90;9.00;;;7.90;49.90;;;;;;5033811;28;20017;-20
2022/03/14 07:18:12;;;;;;;13.15;9.13;;;8.10;49.70;;;;;;5033799;28;20370;-22
2022/03/14 07:20:39;;;;;;;18.48;11.07;;;8.30;49.90;;;;;;5033628;28;20053;-22
2022/03/14 07:23:06;;;;;;;20.42;11.93;;;8.40;49.40;;;;;;5033594;28;20401;-21
2022/03/14 07:25:37;;;;;;;17.45;11.55;;;8.50;49.50;;;;;;5033533;28;20037;-21
2022/03/14 07:28:06;;;;;;;19.15;12.10;;;8.70;49.10;;;;;;5033512;28;20474;-21
2022/03/14 07:30:32;;;;;;;19.65;13.27;;;8.90;49.10;;;;;;5033251;28;20557;-23
2022/03/14 07:32:58;;;;;;;16.63;10.63;;;8.90;49.10;;;;;;5033391;28;20124;-22
2022/03/14 07:35:26;;;;;;;17.52;10.70;;;9.00;48.70;;;;;;5033438;28;20033;-21
2022/03/14 07:37:53;;;;;;;17.27;11.25;;;9.20;48.50;;;;;;5033368;28;20034;-21
2022/03/14 07:40:19;;;;;;;19.10;12.75;;;9.30;48.50;;;;;;5033121;28;20425;-21
2022/03/14 07:42:48;;;;;;;15.70;10.65;;;9.40;48.30;;;;;;5033658;28;20021;-21
2022/03/14 07:45:16;;;;;;;25.45;15.05;;;9.50;48.20;;;;;;5033456;28;20029;-22
2022/03/14 07:47:43;;;;;;;15.13;11.50;;;9.60;48.00;;;;;;5033307;28;20152;-21
2022/03/14 07:50:13;;;;;;;22.80;12.93;;;9.70;47.80;;;;;;5033473;28;20072;-20
2022/03/14 07:52:39;;;;;;;13.57;9.65;;;9.80;47.70;;;;;;5033208;28;20559;-23
2022/03/14 07:55:07;;;;;;;16.38;9.75;;;9.90;47.90;;;;;;5033429;28;20049;-21
2022/03/14 07:57:34;;;;;;;10.73;7.05;;;9.90;47.60;;;;;;5032740;28;20108;-21
2022/03/14 08:00:01;;;;;;;18.00;10.73;;;10.00;47.40;;;;;;5032953;28;20057;-21
2022/03/14 08:02:27;;;;;;;17.52;11.48;;;10.10;47.30;;;;;;5032943;28;20037;-21
2022/03/14 08:04:53;;;;;;;20.25;13.75;;;10.20;47.20;;;;;;5033038;28;20028;-21
2022/03/14 08:07:20;;;;;;;16.92;10.10;;;10.20;47.10;;;;;;5033687;28;20021;-21
2022/03/14 08:09:48;;;;;;;14.98;10.80;;;10.30;46.90;;;;;;5033732;28;20038;-21
2022/03/14 08:12:17;;;;;;;16.73;10.90;;;10.40;46.90;;;;;;5032759;28;20473;-21
2022/03/14 08:14:46;;;;;;;17.95;12.02;;;10.50;46.80;;;;;;5033776;28;20120;-21
2022/03/14 08:17:12;;;;;;;20.23;12.68;;;10.60;46.90;;;;;;5037118;28;20035;-21
2022/03/14 08:19:38;;;;;;;12.60;8.50;;;10.60;46.90;;;;;;5037230;28;20125;-22
2022/03/14 08:22:04;;;;;;;20.23;13.40;;;10.70;46.70;;;;;;5037300;28;20036;-22
2022/03/14 08:24:30;;;;;;;20.27;12.40;;;10.80;46.50;;;;;;5036890;28;20018;-21
2022/03/14 08:26:56;;;;;;;16.08;10.43;;;10.90;46.50;;;;;;5037181;28;20378;-20
2022/03/14 08:29:22;;;;;;;19.77;13.77;;;11.10;46.20;;;;;;5036919;28;20037;-23
2022/03/14 08:31:48;;;;;;;16.85;11.25;;;11.30;46.20;;;;;;5036841;28;20064;-23
2022/03/14 08:34:14;;;;;;;22.70;13.90;;;11.40;46.00;;;;;;5036653;28;20036;-21
2022/03/14 08:36:40;;;;;;;20.20;13.63;;;11.60;45.70;;;;;;5036793;28;20030;-21
2022/03/14 08:39:10;;;;;;;16.90;11.52;;;11.90;45.50;;;;;;5036944;28;20026;-21
2022/03/14 08:41:37;;;;;;;16.08;10.90;;;12.10;45.20;;;;;;5036798;28;20037;-21
2022/03/14 08:44:04;;;;;;;13.23;8.23;;;12.40;44.80;;;;;;5036810;28;20469;-21
2022/03/14 08:46:30;;;;;;;15.30;10.35;;;12.60;44.60;;;;;;5035219;28;20032;-19
2022/03/14 08:48:57;;;;;;;18.05;10.98;;;12.90;44.20;;;;;;5036721;28;20029;-20
2022/03/14 08:51:23;;;;;;;18.80;10.88;;;13.20;44.00;;;;;;5036674;28;20029;-20
2022/03/14 08:53:49;;;;;;;20.45;11.35;;;13.50;43.70;;;;;;5035433;28;20072;-20
2022/03/14 08:56:15;;;;;;;15.63;9.52;;;13.80;43.40;;;;;;5036463;28;20057;-22
2022/03/14 08:58:41;;;;;;;10.20;7.15;;;13.90;43.10;;;;;;5036537;28;20112;-22
2022/03/14 09:01:10;;;;;;;11.77;7.72;;;14.10;43.00;;;;;;5036273;28;20112;-21
2022/03/14 09:03:37;;;;;;;12.45;8.60;;;14.30;42.80;;;;;;5036931;28;20064;-21
2022/03/14 09:06:03;;;;;;;14.65;9.45;;;14.40;42.70;;;;;;5036206;28;20037;-21
2022/03/14 09:08:29;;;;;;;13.95;10.32;;;14.60;42.50;;;;;;5035891;28;20410;-21
2022/03/14 09:10:55;;;;;;;15.02;10.10;;;14.70;42.40;;;;;;5036053;28;20030;-21
2022/03/14 09:13:25;;;;;;;17.92;11.27;;;14.80;42.50;;;;;;5036614;28;20068;-21
2022/03/14 09:15:52;;;;;;;16.23;10.18;;;14.90;42.30;;;;;;5036232;28;20026;-21
2022/03/14 09:18:19;;;;;;;15.57;10.32;;;15.10;42.20;;;;;;5036349;28;20066;-21
2022/03/14 09:20:46;;;;;;;11.65;7.82;;;15.20;42.10;;;;;;5035717;28;20045;-20
2022/03/14 09:23:12;;;;;;;16.23;11.90;;;15.30;41.90;;;;;;5036193;28;20033;-21
2022/03/14 09:25:38;;;;;;;14.43;9.88;;;15.40;41.70;;;;;;5035597;28;20026;-20
2022/03/14 09:28:05;;;;;;;13.90;9.80;;;15.60;41.60;;;;;;5035995;28;20030;-20
2022/03/14 09:30:31;;;;;;;13.82;9.63;;;15.80;41.50;;;;;;5035330;28;20528;-20
2022/03/14 09:32:57;;;;;;;13.77;9.20;;;16.00;41.30;;;;;;5035746;28;20052;-20
2022/03/14 09:35:25;;;;;;;10.80;6.38;;;16.20;40.80;;;;;;5035923;28;20474;-22
2022/03/14 09:37:52;;;;;;;11.77;8.30;;;16.40;40.80;;;;;;5035524;28;20025;-22
2022/03/14 09:40:21;;;;;;;13.13;8.98;;;16.60;40.20;;;;;;5035961;28;20025;-21
2022/03/14 09:42:53;;;;;;;14.13;8.40;;;16.90;39.90;;;;;;5034648;28;20025;-21
2022/03/14 09:45:20;;;;;;;10.40;7.20;;;17.10;39.70;;;;;;5034209;28;20022;-20
2022/03/14 09:47:53;;;;;;;9.02;5.93;;;17.30;39.50;;;;;;5035775;28;20108;-21
2022/03/14 09:50:36;;;;;;;11.60;8.13;;;17.50;39.50;;;;;;5035437;28;20025;-21
2022/03/14 09:53:09;;;;;;;13.20;8.43;;;17.70;39.20;;;;;;5035757;28;20029;-21
2022/03/14 09:55:41;;;;;;;11.43;7.22;;;17.90;38.80;;;;;;5036179;28;20070;-20
2022/03/14 09:58:13;;;;;;;8.65;6.13;;;18.10;38.60;;;;;;5035471;28;20428;-20
2022/03/14 10:00:39;;;;;;;13.00;8.20;;;18.30;38.70;;;;;;5035119;28;20430;-21
2022/03/14 10:03:06;;;;;;;11.20;8.02;;;18.50;38.40;;;;;;5035186;28;20026;-21
2022/03/14 10:05:33;;;;;;;9.50;6.22;;;18.70;38.10;;;;;;5035127;28;20098;-22
2022/03/14 10:08:00;;;;;;;10.18;6.55;;;18.90;38.00;;;;;;5035355;28;20048;-23
2022/03/14 10:10:26;;;;;;;10.77;7.72;;;19.10;37.70;;;;;;5034791;28;20041;-23
2022/03/14 10:12:57;;;;;;;10.88;7.38;;;19.20;37.20;;;;;;5034972;28;20116;-22
2022/03/14 10:15:27;;;;;;;12.50;8.45;;;19.20;37.00;;;;;;5035179;28;20044;-22
2022/03/14 10:17:54;;;;;;;13.10;8.45;;;19.30;37.00;;;;;;5034817;28;20038;-22
2022/03/14 10:20:22;;;;;;;9.57;6.70;;;19.40;36.90;;;;;;5033171;28;20045;-21
2022/03/14 10:22:49;;;;;;;9.18;6.13;;;19.40;36.80;;;;;;5034807;28;20029;-21
2022/03/14 10:25:18;;;;;;;13.60;6.95;;;19.60;36.80;;;;;;5034683;28;20386;-21
2022/03/14 10:27:57;;;;;;;9.70;6.35;;;19.80;36.80;;;;;;5034680;28;20029;-21
2022/03/14 10:30:31;;;;;;;14.35;6.38;;;20.00;36.70;;;;;;5034627;28;20029;-21
2022/03/14 10:33:01;;;;;;;12.07;5.80;;;20.20;36.40;;;;;;5034863;28;20120;-21
2022/03/14 10:35:34;;;;;;;7.80;4.93;;;20.40;36.40;;;;;;5034770;28;20034;-21
2022/03/14 10:38:04;;;;;;;9.80;6.43;;;20.50;35.90;;;;;;5032444;28;20021;-21
2022/03/14 10:40:33;;;;;;;10.23;5.40;;;20.80;35.60;;;;;;5034172;28;20064;-21
2022/03/14 10:43:00;;;;;;;10.15;7.07;;;21.00;35.70;;;;;;5034708;28;20021;-21
2022/03/14 10:45:27;;;;;;;10.95;7.88;;;21.20;35.40;;;;;;5034243;28;20473;-21
2022/03/14 10:47:56;;;;;;;10.63;7.38;;;21.40;34.90;;;;;;5034620;28;20029;-21
2022/03/14 10:50:38;;;;;;;11.80;6.78;;;21.60;34.60;;;;;;5033872;28;20028;-21
2022/03/14 10:53:18;;;;;;;11.60;7.35;;;21.70;34.10;;;;;;5034106;28;20087;-21
2022/03/14 10:55:46;;;;;;;13.05;8.20;;;21.90;33.80;;;;;;5034156;28;20022;-21
2022/03/14 10:58:17;;;;;;;11.75;6.85;;;22.00;33.90;;;;;;5033782;28;20124;-22
2022/03/14 11:00:44;;;;;;;9.23;6.88;;;22.00;33.90;;;;;;5032629;28;20018;-21
2022/03/14 11:03:10;;;;;;;8.57;5.40;;;22.20;33.90;;;;;;5034519;28;20504;-22
2022/03/14 11:05:44;;;;;;;11.40;7.13;;;22.30;34.00;;;;;;5033977;28;20029;-22
2022/03/14 11:08:28;;;;;;;8.13;5.43;;;22.40;33.50;;;;;;5034042;28;20109;-21
2022/03/14 11:10:55;;;;;;;9.98;6.75;;;22.40;31.50;;;;;;5034490;28;20029;-21
2022/03/14 11:13:22;;;;;;;10.88;7.43;;;22.50;33.40;;;;;;5034132;28;20049;-21
2022/03/14 11:15:48;;;;;;;11.05;7.45;;;22.40;32.90;;;;;;5034016;28;20074;-21
2022/03/14 11:18:16;;;;;;;8.40;5.22;;;22.40;33.20;;;;;;5032669;28;20104;-21
2022/03/14 11:20:43;;;;;;;9.38;6.63;;;22.40;33.50;;;;;;5033505;28;20133;-21
2022/03/14 11:23:12;;;;;;;8.32;5.55;;;22.40;33.00;;;;;;5033980;28;20394;-21
2022/03/14 11:25:40;;;;;;;7.05;4.15;;;22.40;32.70;;;;;;5033829;28;20025;-21
2022/03/14 11:28:07;;;;;;;9.02;5.70;;;22.40;33.00;;;;;;5033788;28;20034;-21
2022/03/14 11:30:38;;;;;;;12.75;8.30;;;22.40;32.70;;;;;;5033305;28;20080;-22
2022/03/14 11:33:04;;;;;;;9.80;7.40;;;22.40;32.40;;;;;;5033522;28;20052;-21
2022/03/14 11:35:31;;;;;;;11.32;7.47;;;22.50;32.20;;;;;;5033424;28;20060;-21
2022/03/14 11:37:57;;;;;;;15.10;8.85;;;22.40;32.30;;;;;;5033730;28;20025;-21
2022/03/14 11:40:23;;;;;;;12.98;8.70;;;22.50;31.90;;;;;;5033504;28;20072;-21
2022/03/14 11:42:50;;;;;;;13.18;8.57;;;22.40;31.30;;;;;;5033382;28;20481;-20
2022/03/14 11:45:17;;;;;;;13.88;9.07;;;22.40;31.90;;;;;;5033617;28;20025;-20
2022/03/14 11:47:43;;;;;;;13.07;7.50;;;22.40;31.80;;;;;;5033668;28;20487;-20
2022/03/14 11:50:09;;;;;;;8.85;6.35;;;22.60;31.90;;;;;;5033151;28;20021;-21
2022/03/14 11:52:41;;;;;;;8.93;6.18;;;22.50;31.90;;;;;;5033343;28;20025;-20
2022/03/14 11:55:24;;;;;;;6.25;4.28;;;22.80;31.60;;;;;;5033252;28;20446;-21
2022/03/14 11:57:51;;;;;;;11.25;7.20;;;23.10;31.40;;;;;;5033491;28;20104;-20
2022/03/14 12:00:27;;;;;;;7.95;5.40;;;23.30;31.60;;;;;;5032986;28;20108;-21
2022/03/14 12:02:55;;;;;;;8.02;5.53;;;23.60;31.70;;;;;;5034030;28;20033;-21
2022/03/14 12:05:22;;;;;;;10.63;7.10;;;23.90;31.60;;;;;;5033312;28;20477;-21
2022/03/14 12:07:48;;;;;;;9.50;6.45;;;24.30;31.20;;;;;;5033306;28;20105;-21
2022/03/14 12:10:28;;;;;;;9.63;6.72;;;24.50;30.90;;;;;;5032811;28;20091;-21
2022/03/14 12:12:55;;;;;;;10.68;7.45;;;24.80;30.40;;;;;;5033625;28;20129;-21
2022/03/14 12:15:41;;;;;;;14.15;8.68;;;24.90;30.50;;;;;;5032890;28;20029;-21
2022/03/14 12:18:25;;;;;;;11.00;7.43;;;24.70;28.70;;;;;;5032993;28;20482;-21
2022/03/14 12:20:59;;;;;;;12.68;8.20;;;25.00;29.90;;;;;;5032779;28;20046;-21
2022/03/14 12:23:31;;;;;;;9.38;6.63;;;25.10;29.70;;;;;;5032962;28;20469;-20
2022/03/14 12:26:21;;;;;;;13.15;8.95;;;25.20;30.00;;;;;;5033150;28;20545;-20
2022/03/14 12:28:47;;;;;;;12.75;7.53;;;25.30;29.70;;;;;;5032162;28;20034;-21
2022/03/14 12:31:16;;;;;;;12.07;8.45;;;25.30;29.60;;;;;;5033110;28;20426;-20
2022/03/14 12:33:49;;;;;;;10.23;7.80;;;25.30;29.50;;;;;;5033196;28;20115;-21
2022/03/14 12:36:24;;;;;;;8.95;7.20;;;25.40;29.50;;;;;;5032900;28;20026;-20
2022/03/14 12:39:12;;;;;;;11.93;9.00;;;25.50;29.40;;;;;;5033347;28;20466;-21
2022/03/14 12:41:41;;;;;;;10.85;8.40;;;25.60;28.20;;;;;;5033113;28;20038;-21
2022/03/14 12:44:24;;;;;;;9.73;6.65;;;25.70;29.00;;;;;;5032644;28;20094;-21